sensor_id;sensor_type;location;lat;lon;timestamp;temperature;humidity
3198;DHT22;1611;49.394;11.136;2023-02-28T00:01:04;-2.00;52.20
3198;DHT22;1611;49.394;11.136;2023-02-28T00:03:31;-2.00;52.10
3198;DHT22;1611;49.394;11.136;2023-02-28T00:06:00;-2.00;52.10
3198;DHT22;1611;49.394;11.136;2023-02-28T00:08:27;-2.00;52.30
3198;DHT22;1611;49.394;11.136;2023-02-28T00:10:54;-1.90;52.60
3198;DHT22;1611;49.394;11.136;2023-02-28T00:13:22;-2.00;52.40
3198;DHT22;1611;49.394;11.136;2023-02-28T00:15:59;-2.00;52.50
3198;DHT22;1611;49.394;11.136;2023-02-28T00:18:26;-2.10;52.90
3198;DHT22;1611;49.394;11.136;2023-02-28T00:20:53;-2.10;52.90
3198;DHT22;1611;49.394;11.136;2023-02-28T00:23:19;-2.00;53.30
3198;DHT22;1611;49.394;11.136;2023-02-28T00:25:46;-2.00;53.60
3198;DHT22;1611;49.394;11.136;2023-02-28T00:28:13;-2.00;53.60
3198;DHT22;1611;49.394;11.136;2023-02-28T00:30:41;-2.00;53.50
3198;DHT22;1611;49.394;11.136;2023-02-28T00:33:08;-1.90;53.80
3198;DHT22;1611;49.394;11.136;2023-02-28T00:35:35;-1.90;53.80
3198;DHT22;1611;49.394;11.136;2023-02-28T00:38:01;-2.00;54.10
3198;DHT22;1611;49.394;11.136;2023-02-28T00:40:28;-1.90;53.80
3198;DHT22;1611;49.394;11.136;2023-02-28T00:42:55;-2.00;53.90
3198;DHT22;1611;49.394;11.136;2023-02-28T00:45:22;-2.00;54.20
3198;DHT22;1611;49.394;11.136;2023-02-28T00:47:50;-1.90;54.30
3198;DHT22;1611;49.394;11.136;2023-02-28T00:50:17;-1.90;53.90
3198;DHT22;1611;49.394;11.136;2023-02-28T00:52:44;-2.00;54.00
3198;DHT22;1611;49.394;11.136;2023-02-28T00:55:11;-1.80;54.40
3198;DHT22;1611;49.394;11.136;2023-02-28T00:57:38;-1.90;54.10
3198;DHT22;1611;49.394;11.136;2023-02-28T01:00:07;-1.80;54.50
3198;DHT22;1611;49.394;11.136;2023-02-28T01:02:34;-1.80;54.70
3198;DHT22;1611;49.394;11.136;2023-02-28T01:05:02;-1.80;54.60
3198;DHT22;1611;49.394;11.136;2023-02-28T01:07:30;-1.90;54.70
3198;DHT22;1611;49.394;11.136;2023-02-28T01:09:57;-1.80;54.90
3198;DHT22;1611;49.394;11.136;2023-02-28T01:12:24;-1.80;55.10
3198;DHT22;1611;49.394;11.136;2023-02-28T01:14:51;-1.90;54.90
3198;DHT22;1611;49.394;11.136;2023-02-28T01:17:17;-1.80;55.10
3198;DHT22;1611;49.394;11.136;2023-02-28T01:19:44;-1.80;54.90
3198;DHT22;1611;49.394;11.136;2023-02-28T01:22:12;-1.90;55.00
3198;DHT22;1611;49.394;11.136;2023-02-28T01:24:39;-1.90;55.50
3198;DHT22;1611;49.394;11.136;2023-02-28T01:27:06;-1.90;55.90
3198;DHT22;1611;49.394;11.136;2023-02-28T01:29:32;-1.90;55.70
3198;DHT22;1611;49.394;11.136;2023-02-28T01:31:59;-1.90;55.80
3198;DHT22;1611;49.394;11.136;2023-02-28T01:34:26;-2.00;56.00
3198;DHT22;1611;49.394;11.136;2023-02-28T01:36:52;-1.90;56.00
3198;DHT22;1611;49.394;11.136;2023-02-28T01:39:20;-1.90;56.20
3198;DHT22;1611;49.394;11.136;2023-02-28T01:41:48;-1.90;56.20
3198;DHT22;1611;49.394;11.136;2023-02-28T01:47:19;-1.90;56.40
3198;DHT22;1611;49.394;11.136;2023-02-28T01:49:47;-1.90;56.40
3198;DHT22;1611;49.394;11.136;2023-02-28T01:52:14;-1.90;56.50
3198;DHT22;1611;49.394;11.136;2023-02-28T01:54:46;-1.90;56.60
3198;DHT22;1611;49.394;11.136;2023-02-28T01:57:17;-1.90;56.70
3198;DHT22;1611;49.394;11.136;2023-02-28T01:59:49;-1.80;56.70
3198;DHT22;1611;49.394;11.136;2023-02-28T02:02:19;-1.90;57.00
3198;DHT22;1611;49.394;11.136;2023-02-28T02:04:51;-1.80;56.70
3198;DHT22;1611;49.394;11.136;2023-02-28T02:07:19;-1.90;56.40
3198;DHT22;1611;49.394;11.136;2023-02-28T02:09:48;-1.90;57.10
3198;DHT22;1611;49.394;11.136;2023-02-28T02:12:21;-1.90;57.00
3198;DHT22;1611;49.394;11.136;2023-02-28T02:15:00;-1.90;57.00
3198;DHT22;1611;49.394;11.136;2023-02-28T02:17:36;-2.00;57.10
3198;DHT22;1611;49.394;11.136;2023-02-28T02:20:22;-1.90;57.20
3198;DHT22;1611;49.394;11.136;2023-02-28T02:29:22;-1.90;57.20
3198;DHT22;1611;49.394;11.136;2023-02-28T02:34:54;-1.90;57.20
3198;DHT22;1611;49.394;11.136;2023-02-28T02:37:27;-1.90;57.50
3198;DHT22;1611;49.394;11.136;2023-02-28T02:40:01;-1.80;57.30
3198;DHT22;1611;49.394;11.136;2023-02-28T02:42:33;-1.80;57.20
3198;DHT22;1611;49.394;11.136;2023-02-28T02:45:05;-1.80;57.30
3198;DHT22;1611;49.394;11.136;2023-02-28T02:47:33;-1.80;56.90
3198;DHT22;1611;49.394;11.136;2023-02-28T02:50:06;-1.70;57.10
3198;DHT22;1611;49.394;11.136;2023-02-28T02:52:38;-1.80;56.70
3198;DHT22;1611;49.394;11.136;2023-02-28T02:55:07;-1.80;56.70
3198;DHT22;1611;49.394;11.136;2023-02-28T02:57:40;-1.80;56.70
3198;DHT22;1611;49.394;11.136;2023-02-28T03:00:11;-1.80;56.90
3198;DHT22;1611;49.394;11.136;2023-02-28T03:02:40;-1.80;57.20
3198;DHT22;1611;49.394;11.136;2023-02-28T03:05:16;-1.80;57.30
3198;DHT22;1611;49.394;11.136;2023-02-28T03:07:44;-1.80;57.40
3198;DHT22;1611;49.394;11.136;2023-02-28T03:10:36;-1.80;57.00
3198;DHT22;1611;49.394;11.136;2023-02-28T03:13:19;-1.80;57.10
3198;DHT22;1611;49.394;11.136;2023-02-28T03:15:57;-1.80;57.00
3198;DHT22;1611;49.394;11.136;2023-02-28T03:18:31;-1.90;57.40
3198;DHT22;1611;49.394;11.136;2023-02-28T03:21:06;-2.00;57.60
3198;DHT22;1611;49.394;11.136;2023-02-28T03:23:40;-2.00;57.70
3198;DHT22;1611;49.394;11.136;2023-02-28T03:26:17;-2.00;57.90
3198;DHT22;1611;49.394;11.136;2023-02-28T03:28:51;-2.00;58.20
3198;DHT22;1611;49.394;11.136;2023-02-28T03:31:22;-2.00;57.90
3198;DHT22;1611;49.394;11.136;2023-02-28T03:33:54;-1.90;57.80
3198;DHT22;1611;49.394;11.136;2023-02-28T03:36:26;-2.00;58.10
3198;DHT22;1611;49.394;11.136;2023-02-28T03:38:58;-2.00;57.90
3198;DHT22;1611;49.394;11.136;2023-02-28T03:41:31;-1.90;58.00
3198;DHT22;1611;49.394;11.136;2023-02-28T03:44:03;-1.80;57.70
3198;DHT22;1611;49.394;11.136;2023-02-28T03:46:34;-1.80;57.50
3198;DHT22;1611;49.394;11.136;2023-02-28T03:49:06;-1.90;57.40
3198;DHT22;1611;49.394;11.136;2023-02-28T03:51:38;-1.90;57.80
3198;DHT22;1611;49.394;11.136;2023-02-28T03:54:09;-2.00;57.60
3198;DHT22;1611;49.394;11.136;2023-02-28T03:56:40;-1.90;57.70
3198;DHT22;1611;49.394;11.136;2023-02-28T03:59:13;-2.00;57.70
3198;DHT22;1611;49.394;11.136;2023-02-28T04:01:43;-2.00;57.90
3198;DHT22;1611;49.394;11.136;2023-02-28T04:04:12;-1.90;58.10
3198;DHT22;1611;49.394;11.136;2023-02-28T04:06:40;-1.90;58.00
3198;DHT22;1611;49.394;11.136;2023-02-28T04:09:09;-1.90;57.80
3198;DHT22;1611;49.394;11.136;2023-02-28T04:11:38;-1.90;57.80
3198;DHT22;1611;49.394;11.136;2023-02-28T04:14:07;-1.90;57.40
3198;DHT22;1611;49.394;11.136;2023-02-28T04:16:36;-2.00;57.60
3198;DHT22;1611;49.394;11.136;2023-02-28T04:19:04;-1.90;57.80
3198;DHT22;1611;49.394;11.136;2023-02-28T04:21:33;-1.90;57.60
3198;DHT22;1611;49.394;11.136;2023-02-28T04:24:02;-1.90;57.70
3198;DHT22;1611;49.394;11.136;2023-02-28T04:26:30;-1.80;57.70
3198;DHT22;1611;49.394;11.136;2023-02-28T04:28:57;-1.90;57.50
3198;DHT22;1611;49.394;11.136;2023-02-28T04:31:24;-1.90;57.40
3198;DHT22;1611;49.394;11.136;2023-02-28T04:33:51;-1.90;57.60
3198;DHT22;1611;49.394;11.136;2023-02-28T04:36:18;-1.90;57.70
3198;DHT22;1611;49.394;11.136;2023-02-28T04:38:45;-1.90;57.40
3198;DHT22;1611;49.394;11.136;2023-02-28T04:41:14;-1.80;57.50
3198;DHT22;1611;49.394;11.136;2023-02-28T04:43:41;-1.80;57.60
3198;DHT22;1611;49.394;11.136;2023-02-28T04:46:08;-1.80;57.50
3198;DHT22;1611;49.394;11.136;2023-02-28T04:48:37;-1.80;57.80
3198;DHT22;1611;49.394;11.136;2023-02-28T04:51:06;-1.80;57.60
3198;DHT22;1611;49.394;11.136;2023-02-28T04:53:34;-1.80;57.30
3198;DHT22;1611;49.394;11.136;2023-02-28T04:56:01;-1.70;57.50
3198;DHT22;1611;49.394;11.136;2023-02-28T04:58:30;-1.80;57.50
3198;DHT22;1611;49.394;11.136;2023-02-28T05:01:01;-1.80;57.70
3198;DHT22;1611;49.394;11.136;2023-02-28T05:03:29;-1.80;57.70
3198;DHT22;1611;49.394;11.136;2023-02-28T05:05:56;-1.80;57.80
3198;DHT22;1611;49.394;11.136;2023-02-28T05:08:23;-1.80;57.80
3198;DHT22;1611;49.394;11.136;2023-02-28T05:10:50;-1.80;57.60
3198;DHT22;1611;49.394;11.136;2023-02-28T05:13:17;-1.80;57.80
3198;DHT22;1611;49.394;11.136;2023-02-28T05:15:45;-1.80;58.00
3198;DHT22;1611;49.394;11.136;2023-02-28T05:18:12;-1.80;57.60
3198;DHT22;1611;49.394;11.136;2023-02-28T05:20:40;-1.80;57.80
3198;DHT22;1611;49.394;11.136;2023-02-28T05:23:08;-1.80;57.60
3198;DHT22;1611;49.394;11.136;2023-02-28T05:25:36;-1.80;57.70
3198;DHT22;1611;49.394;11.136;2023-02-28T05:28:03;-1.90;57.80
3198;DHT22;1611;49.394;11.136;2023-02-28T05:30:30;-1.90;58.00
3198;DHT22;1611;49.394;11.136;2023-02-28T05:32:59;-1.80;58.10
3198;DHT22;1611;49.394;11.136;2023-02-28T05:35:26;-1.80;58.00
3198;DHT22;1611;49.394;11.136;2023-02-28T05:37:53;-1.90;58.10
3198;DHT22;1611;49.394;11.136;2023-02-28T05:40:19;-1.90;58.30
3198;DHT22;1611;49.394;11.136;2023-02-28T05:42:46;-1.90;58.30
3198;DHT22;1611;49.394;11.136;2023-02-28T05:45:13;-1.90;58.20
3198;DHT22;1611;49.394;11.136;2023-02-28T05:47:40;-1.90;58.20
3198;DHT22;1611;49.394;11.136;2023-02-28T05:50:09;-1.90;58.50
3198;DHT22;1611;49.394;11.136;2023-02-28T05:52:37;-1.80;58.40
3198;DHT22;1611;49.394;11.136;2023-02-28T05:55:04;-1.90;58.20
3198;DHT22;1611;49.394;11.136;2023-02-28T05:57:31;-1.90;58.20
3198;DHT22;1611;49.394;11.136;2023-02-28T05:59:57;-1.80;58.20
3198;DHT22;1611;49.394;11.136;2023-02-28T06:02:24;-1.80;58.00
3198;DHT22;1611;49.394;11.136;2023-02-28T06:04:51;-1.80;58.10
3198;DHT22;1611;49.394;11.136;2023-02-28T06:07:19;-1.80;57.90
3198;DHT22;1611;49.394;11.136;2023-02-28T06:09:47;-1.80;57.70
3198;DHT22;1611;49.394;11.136;2023-02-28T06:12:14;-1.80;57.70
3198;DHT22;1611;49.394;11.136;2023-02-28T06:14:41;-1.80;57.50
3198;DHT22;1611;49.394;11.136;2023-02-28T06:17:08;-1.80;57.80
3198;DHT22;1611;49.394;11.136;2023-02-28T06:19:36;-1.90;57.60
3198;DHT22;1611;49.394;11.136;2023-02-28T06:22:04;-1.70;58.00
3198;DHT22;1611;49.394;11.136;2023-02-28T06:24:32;-1.70;57.70
3198;DHT22;1611;49.394;11.136;2023-02-28T06:26:59;-1.60;57.50
3198;DHT22;1611;49.394;11.136;2023-02-28T06:29:30;-1.60;57.10
3198;DHT22;1611;49.394;11.136;2023-02-28T06:31:57;-1.70;57.10
3198;DHT22;1611;49.394;11.136;2023-02-28T06:34:24;-1.70;57.00
3198;DHT22;1611;49.394;11.136;2023-02-28T06:36:51;-1.60;57.20
3198;DHT22;1611;49.394;11.136;2023-02-28T06:39:18;-1.60;57.20
3198;DHT22;1611;49.394;11.136;2023-02-28T06:41:46;-1.50;57.00
3198;DHT22;1611;49.394;11.136;2023-02-28T06:44:14;-1.40;56.60
3198;DHT22;1611;49.394;11.136;2023-02-28T06:46:42;-1.40;56.30
3198;DHT22;1611;49.394;11.136;2023-02-28T06:49:09;-1.30;56.10
3198;DHT22;1611;49.394;11.136;2023-02-28T06:51:37;-1.40;56.40
3198;DHT22;1611;49.394;11.136;2023-02-28T06:54:05;-1.30;56.30
3198;DHT22;1611;49.394;11.136;2023-02-28T06:56:34;-1.20;56.10
3198;DHT22;1611;49.394;11.136;2023-02-28T06:59:03;-1.10;55.90
3198;DHT22;1611;49.394;11.136;2023-02-28T07:01:30;-1.10;55.60
3198;DHT22;1611;49.394;11.136;2023-02-28T07:03:58;-1.00;55.50
3198;DHT22;1611;49.394;11.136;2023-02-28T07:06:25;-1.00;55.40
3198;DHT22;1611;49.394;11.136;2023-02-28T07:08:53;-1.00;54.90
3198;DHT22;1611;49.394;11.136;2023-02-28T07:11:21;-0.90;54.60
3198;DHT22;1611;49.394;11.136;2023-02-28T07:13:51;-0.90;54.00
3198;DHT22;1611;49.394;11.136;2023-02-28T07:16:19;-0.70;53.70
3198;DHT22;1611;49.394;11.136;2023-02-28T07:18:46;-0.60;53.50
3198;DHT22;1611;49.394;11.136;2023-02-28T07:21:13;-0.60;52.50
3198;DHT22;1611;49.394;11.136;2023-02-28T07:23:40;-0.50;52.20
3198;DHT22;1611;49.394;11.136;2023-02-28T07:26:11;-0.40;51.30
3198;DHT22;1611;49.394;11.136;2023-02-28T07:28:40;-0.40;51.20
3198;DHT22;1611;49.394;11.136;2023-02-28T07:31:08;-0.20;50.30
3198;DHT22;1611;49.394;11.136;2023-02-28T07:33:36;-0.10;50.20
3198;DHT22;1611;49.394;11.136;2023-02-28T07:36:05;-0.10;49.60
3198;DHT22;1611;49.394;11.136;2023-02-28T07:38:33;-0.10;48.70
3198;DHT22;1611;49.394;11.136;2023-02-28T07:41:00;0.00;48.40
3198;DHT22;1611;49.394;11.136;2023-02-28T07:43:29;0.10;48.50
3198;DHT22;1611;49.394;11.136;2023-02-28T07:46:01;0.20;48.10
3198;DHT22;1611;49.394;11.136;2023-02-28T07:48:28;0.30;47.80
3198;DHT22;1611;49.394;11.136;2023-02-28T07:50:57;0.40;47.70
3198;DHT22;1611;49.394;11.136;2023-02-28T07:53:24;0.40;46.60
3198;DHT22;1611;49.394;11.136;2023-02-28T07:55:51;0.50;47.10
3198;DHT22;1611;49.394;11.136;2023-02-28T07:58:20;0.50;46.40
3198;DHT22;1611;49.394;11.136;2023-02-28T08:00:47;0.50;46.90
3198;DHT22;1611;49.394;11.136;2023-02-28T08:03:14;0.70;46.40
3198;DHT22;1611;49.394;11.136;2023-02-28T08:05:40;0.70;46.00
3198;DHT22;1611;49.394;11.136;2023-02-28T08:08:09;0.70;46.40
3198;DHT22;1611;49.394;11.136;2023-02-28T08:10:36;0.80;46.10
3198;DHT22;1611;49.394;11.136;2023-02-28T08:13:03;0.90;45.80
3198;DHT22;1611;49.394;11.136;2023-02-28T08:15:30;1.00;45.60
3198;DHT22;1611;49.394;11.136;2023-02-28T08:17:57;1.00;45.60
3198;DHT22;1611;49.394;11.136;2023-02-28T08:20:24;1.10;45.20
3198;DHT22;1611;49.394;11.136;2023-02-28T08:22:51;1.30;45.00
3198;DHT22;1611;49.394;11.136;2023-02-28T08:25:20;1.30;44.40
3198;DHT22;1611;49.394;11.136;2023-02-28T08:27:46;1.40;44.50
3198;DHT22;1611;49.394;11.136;2023-02-28T08:30:14;1.50;44.60
3198;DHT22;1611;49.394;11.136;2023-02-28T08:32:41;1.70;44.40
3198;DHT22;1611;49.394;11.136;2023-02-28T08:35:08;1.70;42.90
3198;DHT22;1611;49.394;11.136;2023-02-28T08:37:35;1.80;41.40
3198;DHT22;1611;49.394;11.136;2023-02-28T08:40:03;1.80;41.40
3198;DHT22;1611;49.394;11.136;2023-02-28T08:42:32;1.70;41.20
3198;DHT22;1611;49.394;11.136;2023-02-28T08:44:59;1.80;41.90
3198;DHT22;1611;49.394;11.136;2023-02-28T08:47:25;1.70;40.70
3198;DHT22;1611;49.394;11.136;2023-02-28T08:49:52;1.80;41.50
3198;DHT22;1611;49.394;11.136;2023-02-28T08:52:19;1.70;41.30
3198;DHT22;1611;49.394;11.136;2023-02-28T08:54:46;1.80;40.60
3198;DHT22;1611;49.394;11.136;2023-02-28T08:57:12;1.80;39.90
3198;DHT22;1611;49.394;11.136;2023-02-28T08:59:40;1.80;39.90
3198;DHT22;1611;49.394;11.136;2023-02-28T09:02:08;1.90;40.30
3198;DHT22;1611;49.394;11.136;2023-02-28T09:04:35;2.10;39.40
3198;DHT22;1611;49.394;11.136;2023-02-28T09:07:02;2.10;38.80
3198;DHT22;1611;49.394;11.136;2023-02-28T09:09:29;2.30;38.60
3198;DHT22;1611;49.394;11.136;2023-02-28T09:11:56;2.30;37.90
3198;DHT22;1611;49.394;11.136;2023-02-28T09:14:23;2.50;38.50
3198;DHT22;1611;49.394;11.136;2023-02-28T09:16:51;2.80;38.00
3198;DHT22;1611;49.394;11.136;2023-02-28T09:19:18;3.00;36.90
3198;DHT22;1611;49.394;11.136;2023-02-28T09:21:45;2.90;36.20
3198;DHT22;1611;49.394;11.136;2023-02-28T09:24:12;2.90;35.80
3198;DHT22;1611;49.394;11.136;2023-02-28T09:26:40;2.80;36.40
3198;DHT22;1611;49.394;11.136;2023-02-28T09:29:07;3.10;36.50
3198;DHT22;1611;49.394;11.136;2023-02-28T09:31:34;3.20;35.30
3198;DHT22;1611;49.394;11.136;2023-02-28T09:34:03;3.30;35.50
3198;DHT22;1611;49.394;11.136;2023-02-28T09:36:30;3.50;34.90
3198;DHT22;1611;49.394;11.136;2023-02-28T09:38:58;3.60;35.50
3198;DHT22;1611;49.394;11.136;2023-02-28T09:41:26;3.80;34.30
3198;DHT22;1611;49.394;11.136;2023-02-28T09:43:57;3.90;34.10
3198;DHT22;1611;49.394;11.136;2023-02-28T09:46:29;4.00;33.00
3198;DHT22;1611;49.394;11.136;2023-02-28T09:48:59;4.10;32.90
3198;DHT22;1611;49.394;11.136;2023-02-28T09:51:46;4.20;32.70
3198;DHT22;1611;49.394;11.136;2023-02-28T09:54:17;4.30;32.80
3198;DHT22;1611;49.394;11.136;2023-02-28T09:56:47;4.40;32.00
3198;DHT22;1611;49.394;11.136;2023-02-28T09:59:25;4.60;30.90
3198;DHT22;1611;49.394;11.136;2023-02-28T10:01:59;5.00;29.90
3198;DHT22;1611;49.394;11.136;2023-02-28T10:04:42;5.60;28.30
3198;DHT22;1611;49.394;11.136;2023-02-28T10:07:19;6.20;27.50
3198;DHT22;1611;49.394;11.136;2023-02-28T10:09:52;7.20;24.10
3198;DHT22;1611;49.394;11.136;2023-02-28T10:12:20;7.50;22.50
3198;DHT22;1611;49.394;11.136;2023-02-28T10:14:49;7.90;22.00
3198;DHT22;1611;49.394;11.136;2023-02-28T10:17:19;8.70;19.60
3198;DHT22;1611;49.394;11.136;2023-02-28T10:19:55;8.80;19.20
3198;DHT22;1611;49.394;11.136;2023-02-28T10:22:27;8.60;18.90
3198;DHT22;1611;49.394;11.136;2023-02-28T10:24:55;8.50;19.60
3198;DHT22;1611;49.394;11.136;2023-02-28T10:27:30;8.30;19.40
3198;DHT22;1611;49.394;11.136;2023-02-28T10:29:58;8.20;19.30
3198;DHT22;1611;49.394;11.136;2023-02-28T10:32:29;8.20;20.00
3198;DHT22;1611;49.394;11.136;2023-02-28T10:34:59;8.50;19.40
3198;DHT22;1611;49.394;11.136;2023-02-28T10:37:28;8.80;18.90
3198;DHT22;1611;49.394;11.136;2023-02-28T10:39:56;8.80;19.20
3198;DHT22;1611;49.394;11.136;2023-02-28T10:42:24;8.80;19.00
3198;DHT22;1611;49.394;11.136;2023-02-28T10:45:11;8.70;18.30
3198;DHT22;1611;49.394;11.136;2023-02-28T10:47:49;7.90;19.50
3198;DHT22;1611;49.394;11.136;2023-02-28T10:50:33;7.90;19.90
3198;DHT22;1611;49.394;11.136;2023-02-28T10:53:14;7.90;19.80
3198;DHT22;1611;49.394;11.136;2023-02-28T10:55:42;8.40;19.30
3198;DHT22;1611;49.394;11.136;2023-02-28T10:58:21;8.50;18.50
3198;DHT22;1611;49.394;11.136;2023-02-28T11:00:49;8.80;18.40
3198;DHT22;1611;49.394;11.136;2023-02-28T11:03:29;9.20;17.80
3198;DHT22;1611;49.394;11.136;2023-02-28T11:05:57;9.50;17.20
3198;DHT22;1611;49.394;11.136;2023-02-28T11:08:25;9.70;17.40
3198;DHT22;1611;49.394;11.136;2023-02-28T11:10:56;10.10;17.10
3198;DHT22;1611;49.394;11.136;2023-02-28T11:13:31;10.10;16.10
3198;DHT22;1611;49.394;11.136;2023-02-28T11:16:02;10.10;16.20
3198;DHT22;1611;49.394;11.136;2023-02-28T11:18:39;10.70;16.00
3198;DHT22;1611;49.394;11.136;2023-02-28T11:21:08;10.40;15.80
3198;DHT22;1611;49.394;11.136;2023-02-28T11:23:40;9.80;16.30
3198;DHT22;1611;49.394;11.136;2023-02-28T11:26:07;9.00;17.60
3198;DHT22;1611;49.394;11.136;2023-02-28T11:28:38;8.30;18.30
3198;DHT22;1611;49.394;11.136;2023-02-28T11:31:15;7.80;19.50
3198;DHT22;1611;49.394;11.136;2023-02-28T11:33:45;7.80;19.40
3198;DHT22;1611;49.394;11.136;2023-02-28T11:36:16;8.50;19.00
3198;DHT22;1611;49.394;11.136;2023-02-28T11:38:45;9.50;17.40
3198;DHT22;1611;49.394;11.136;2023-02-28T11:41:27;10.20;16.40
3198;DHT22;1611;49.394;11.136;2023-02-28T11:44:09;10.00;16.20
3198;DHT22;1611;49.394;11.136;2023-02-28T11:46:43;9.80;16.40
3198;DHT22;1611;49.394;11.136;2023-02-28T11:49:26;10.00;16.40
3198;DHT22;1611;49.394;11.136;2023-02-28T11:52:00;9.90;16.00
3198;DHT22;1611;49.394;11.136;2023-02-28T11:55:00;10.10;16.00
3198;DHT22;1611;49.394;11.136;2023-02-28T11:57:35;10.10;16.40
3198;DHT22;1611;49.394;11.136;2023-02-28T12:00:17;10.20;15.90
3198;DHT22;1611;49.394;11.136;2023-02-28T12:02:58;10.20;15.70
3198;DHT22;1611;49.394;11.136;2023-02-28T12:05:30;9.60;16.50
3198;DHT22;1611;49.394;11.136;2023-02-28T12:08:15;9.30;17.50
3198;DHT22;1611;49.394;11.136;2023-02-28T12:10:58;9.20;18.30
3198;DHT22;1611;49.394;11.136;2023-02-28T12:13:36;9.30;18.00
3198;DHT22;1611;49.394;11.136;2023-02-28T12:16:29;9.30;18.40
3198;DHT22;1611;49.394;11.136;2023-02-28T12:19:06;8.90;18.30
3198;DHT22;1611;49.394;11.136;2023-02-28T12:21:53;8.70;18.70
3198;DHT22;1611;49.394;11.136;2023-02-28T12:24:43;8.60;18.90
3198;DHT22;1611;49.394;11.136;2023-02-28T12:27:20;8.40;18.80
3198;DHT22;1611;49.394;11.136;2023-02-28T12:29:52;8.60;20.00
3198;DHT22;1611;49.394;11.136;2023-02-28T12:32:23;9.20;18.90
3198;DHT22;1611;49.394;11.136;2023-02-28T12:34:56;10.00;16.90
3198;DHT22;1611;49.394;11.136;2023-02-28T12:37:29;10.30;16.70
3198;DHT22;1611;49.394;11.136;2023-02-28T12:40:01;10.40;16.50
3198;DHT22;1611;49.394;11.136;2023-02-28T12:42:36;10.60;16.40
3198;DHT22;1611;49.394;11.136;2023-02-28T12:45:10;10.40;15.70
3198;DHT22;1611;49.394;11.136;2023-02-28T12:47:38;9.80;16.50
3198;DHT22;1611;49.394;11.136;2023-02-28T12:50:08;10.00;16.80
3198;DHT22;1611;49.394;11.136;2023-02-28T12:52:45;10.60;16.40
3198;DHT22;1611;49.394;11.136;2023-02-28T12:55:19;11.20;15.00
3198;DHT22;1611;49.394;11.136;2023-02-28T12:57:57;11.10;15.50
3198;DHT22;1611;49.394;11.136;2023-02-28T13:00:34;10.50;15.70
3198;DHT22;1611;49.394;11.136;2023-02-28T13:03:25;10.20;16.00
3198;DHT22;1611;49.394;11.136;2023-02-28T13:09:04;9.90;17.40
3198;DHT22;1611;49.394;11.136;2023-02-28T13:11:33;9.90;16.80
3198;DHT22;1611;49.394;11.136;2023-02-28T13:14:20;10.70;15.90
3198;DHT22;1611;49.394;11.136;2023-02-28T13:16:53;11.10;15.50
3198;DHT22;1611;49.394;11.136;2023-02-28T13:19:22;10.60;16.00
3198;DHT22;1611;49.394;11.136;2023-02-28T13:21:50;10.90;16.10
3198;DHT22;1611;49.394;11.136;2023-02-28T13:24:44;11.70;15.00
3198;DHT22;1611;49.394;11.136;2023-02-28T13:27:32;12.50;13.40
3198;DHT22;1611;49.394;11.136;2023-02-28T13:33:26;12.10;13.60
3198;DHT22;1611;49.394;11.136;2023-02-28T13:36:22;12.10;14.10
3198;DHT22;1611;49.394;11.136;2023-02-28T13:38:50;12.00;14.40
3198;DHT22;1611;49.394;11.136;2023-02-28T13:41:44;11.60;14.20
3198;DHT22;1611;49.394;11.136;2023-02-28T13:44:12;11.20;15.20
3198;DHT22;1611;49.394;11.136;2023-02-28T13:49:45;11.10;15.50
3198;DHT22;1611;49.394;11.136;2023-02-28T13:52:16;11.20;15.90
3198;DHT22;1611;49.394;11.136;2023-02-28T13:55:02;10.80;15.40
3198;DHT22;1611;49.394;11.136;2023-02-28T13:57:44;10.20;16.40
3198;DHT22;1611;49.394;11.136;2023-02-28T14:00:23;9.50;17.00
3198;DHT22;1611;49.394;11.136;2023-02-28T14:03:14;9.10;18.70
3198;DHT22;1611;49.394;11.136;2023-02-28T14:05:44;8.80;18.80
3198;DHT22;1611;49.394;11.136;2023-02-28T14:08:15;8.60;19.20
3198;DHT22;1611;49.394;11.136;2023-02-28T14:10:45;8.40;19.50
3198;DHT22;1611;49.394;11.136;2023-02-28T14:13:38;8.30;19.90
3198;DHT22;1611;49.394;11.136;2023-02-28T14:16:10;7.90;20.50
3198;DHT22;1611;49.394;11.136;2023-02-28T14:18:40;7.90;21.00
3198;DHT22;1611;49.394;11.136;2023-02-28T14:21:16;8.70;20.30
3198;DHT22;1611;49.394;11.136;2023-02-28T14:24:19;8.80;19.70
3198;DHT22;1611;49.394;11.136;2023-02-28T14:27:08;9.50;18.20
3198;DHT22;1611;49.394;11.136;2023-02-28T14:29:59;9.60;17.90
3198;DHT22;1611;49.394;11.136;2023-02-28T14:32:34;9.80;17.90
3198;DHT22;1611;49.394;11.136;2023-02-28T14:35:13;9.50;18.10
3198;DHT22;1611;49.394;11.136;2023-02-28T14:37:44;9.50;18.60
3198;DHT22;1611;49.394;11.136;2023-02-28T14:40:14;9.30;19.60
3198;DHT22;1611;49.394;11.136;2023-02-28T14:42:48;8.80;19.30
3198;DHT22;1611;49.394;11.136;2023-02-28T14:45:18;8.30;20.30
3198;DHT22;1611;49.394;11.136;2023-02-28T14:47:46;8.00;22.00
3198;DHT22;1611;49.394;11.136;2023-02-28T14:50:18;7.70;22.30
3198;DHT22;1611;49.394;11.136;2023-02-28T14:52:49;7.70;22.40
3198;DHT22;1611;49.394;11.136;2023-02-28T14:55:19;7.60;22.10
3198;DHT22;1611;49.394;11.136;2023-02-28T14:57:53;7.40;22.50
3198;DHT22;1611;49.394;11.136;2023-02-28T15:00:23;7.20;23.40
3198;DHT22;1611;49.394;11.136;2023-02-28T15:02:51;7.00;23.70
3198;DHT22;1611;49.394;11.136;2023-02-28T15:05:27;6.90;23.80
3198;DHT22;1611;49.394;11.136;2023-02-28T15:08:06;6.80;24.00
3198;DHT22;1611;49.394;11.136;2023-02-28T15:10:33;6.90;24.10
3198;DHT22;1611;49.394;11.136;2023-02-28T15:13:01;7.10;23.30
3198;DHT22;1611;49.394;11.136;2023-02-28T15:15:40;7.10;23.00
3198;DHT22;1611;49.394;11.136;2023-02-28T15:18:10;7.00;24.10
3198;DHT22;1611;49.394;11.136;2023-02-28T15:20:42;7.00;23.30
3198;DHT22;1611;49.394;11.136;2023-02-28T15:23:11;7.00;23.50
3198;DHT22;1611;49.394;11.136;2023-02-28T15:25:40;7.00;23.60
3198;DHT22;1611;49.394;11.136;2023-02-28T15:28:13;6.90;23.60
3198;DHT22;1611;49.394;11.136;2023-02-28T15:30:52;6.70;23.80
3198;DHT22;1611;49.394;11.136;2023-02-28T15:33:20;6.60;24.40
3198;DHT22;1611;49.394;11.136;2023-02-28T15:35:48;6.70;24.80
3198;DHT22;1611;49.394;11.136;2023-02-28T15:38:21;6.80;23.90
3198;DHT22;1611;49.394;11.136;2023-02-28T15:40:51;6.90;23.90
3198;DHT22;1611;49.394;11.136;2023-02-28T15:43:27;6.90;23.90
3198;DHT22;1611;49.394;11.136;2023-02-28T15:45:57;6.60;23.90
3198;DHT22;1611;49.394;11.136;2023-02-28T15:48:27;6.50;24.90
3198;DHT22;1611;49.394;11.136;2023-02-28T15:50:57;6.30;25.40
3198;DHT22;1611;49.394;11.136;2023-02-28T15:53:30;6.10;25.80
3198;DHT22;1611;49.394;11.136;2023-02-28T15:56:02;5.80;27.00
3198;DHT22;1611;49.394;11.136;2023-02-28T15:58:30;5.70;27.30
3198;DHT22;1611;49.394;11.136;2023-02-28T16:01:06;5.50;27.70
3198;DHT22;1611;49.394;11.136;2023-02-28T16:03:39;5.40;27.90
3198;DHT22;1611;49.394;11.136;2023-02-28T16:06:26;5.30;28.20
3198;DHT22;1611;49.394;11.136;2023-02-28T16:08:57;5.20;28.30
3198;DHT22;1611;49.394;11.136;2023-02-28T16:11:24;5.00;28.70
3198;DHT22;1611;49.394;11.136;2023-02-28T16:13:51;5.00;29.40
3198;DHT22;1611;49.394;11.136;2023-02-28T16:16:22;4.80;29.50
3198;DHT22;1611;49.394;11.136;2023-02-28T16:18:50;4.70;29.70
3198;DHT22;1611;49.394;11.136;2023-02-28T16:21:17;4.60;30.80
3198;DHT22;1611;49.394;11.136;2023-02-28T16:23:43;4.40;31.60
3198;DHT22;1611;49.394;11.136;2023-02-28T16:26:18;4.30;31.30
3198;DHT22;1611;49.394;11.136;2023-02-28T16:28:46;4.30;31.60
3198;DHT22;1611;49.394;11.136;2023-02-28T16:31:13;4.20;31.50
3198;DHT22;1611;49.394;11.136;2023-02-28T16:33:42;4.10;32.10
3198;DHT22;1611;49.394;11.136;2023-02-28T16:36:14;4.10;31.90
3198;DHT22;1611;49.394;11.136;2023-02-28T16:38:41;3.90;32.00